Time;durP1;ratioP1;P1;durP2;ratioP2;P2;SDS_P1;SDS_P2;PMS_P1;PMS_P2;Temp;Humidity;BMP_temperature;BMP_pressure;BME280_temperature;BME280_humidity;BME280_pressure;Samples;Min_cycle;Max_cycle;Signal;HPM_P1;HPM_P2
2021/06/18 00:00:29;;;;;;;5.90;5.13;;;18.80;99.00;;;;;;4743664;30;20054;-83
2021/06/18 00:02:57;;;;;;;6.60;5.25;;;18.60;99.00;;;;;;4744060;30;20044;-83
2021/06/18 00:05:27;;;;;;;5.47;4.97;;;18.60;99.10;;;;;;4755845;30;20047;-85
2021/06/18 00:07:55;;;;;;;5.53;4.90;;;18.50;99.40;;;;;;4744157;30;20056;-83
2021/06/18 00:10:25;;;;;;;6.13;5.18;;;18.20;99.90;;;;;;4757638;30;20051;-83
2021/06/18 00:12:54;;;;;;;5.35;4.60;;;18.00;99.90;;;;;;4760791;30;20060;-84
2021/06/18 00:15:22;;;;;;;7.03;6.45;;;17.90;99.90;;;;;;4741961;30;20430;-85
2021/06/18 00:17:50;;;;;;;5.22;4.72;;;17.80;99.90;;;;;;4759929;30;20059;-86
2021/06/18 00:20:19;;;;;;;8.63;5.90;;;17.90;99.90;;;;;;4742623;30;20059;-83
2021/06/18 00:22:47;;;;;;;5.22;4.82;;;17.90;99.90;;;;;;4761872;30;20067;-82
2021/06/18 00:25:15;;;;;;;9.57;5.18;;;17.80;99.90;;;;;;4756608;30;20495;-82
2021/06/18 00:27:43;;;;;;;5.68;5.13;;;17.70;99.90;;;;;;4743948;30;20071;-82
2021/06/18 00:30:12;;;;;;;5.05;4.50;;;17.60;99.90;;;;;;4749455;30;20055;-83
2021/06/18 00:32:40;;;;;;;6.50;5.90;;;17.50;99.90;;;;;;4742593;30;20052;-82
2021/06/18 00:35:09;;;;;;;6.53;5.93;;;17.50;99.90;;;;;;4740686;30;20076;-83
2021/06/18 00:37:37;;;;;;;6.25;5.57;;;17.50;99.90;;;;;;4758469;30;20148;-82
2021/06/18 00:40:05;;;;;;;7.88;7.20;;;17.50;99.90;;;;;;4745476;30;20051;-83
2021/06/18 00:42:33;;;;;;;5.95;5.47;;;17.50;99.90;;;;;;4757983;30;20406;-82
2021/06/18 00:45:01;;;;;;;7.47;6.57;;;17.60;99.90;;;;;;4756722;30;20055;-82
2021/06/18 00:47:29;;;;;;;6.18;5.60;;;17.60;99.90;;;;;;4757618;30;20048;-82
2021/06/18 00:49:57;;;;;;;7.07;6.38;;;17.60;99.90;;;;;;4755803;30;20753;-83
2021/06/18 00:52:25;;;;;;;6.38;5.78;;;17.50;99.90;;;;;;4756534;30;20051;-83
2021/06/18 00:54:53;;;;;;;7.95;5.55;;;17.40;99.90;;;;;;4758483;30;20387;-83
2021/06/18 00:57:21;;;;;;;6.65;6.05;;;17.30;99.90;;;;;;4762213;30;20071;-82
2021/06/18 00:59:50;;;;;;;6.18;5.57;;;17.30;99.90;;;;;;4777775;30;20499;-83
2021/06/18 01:02:18;;;;;;;7.75;5.60;;;17.30;99.90;;;;;;4777177;29;20051;-83
2021/06/18 01:04:47;;;;;;;5.63;5.13;;;17.30;99.90;;;;;;4771661;30;20067;-83
2021/06/18 01:07:25;;;;;;;6.90;4.95;;;17.30;99.90;;;;;;4776979;30;20164;-82
2021/06/18 01:10:18;;;;;;;7.63;6.28;;;17.40;99.90;;;;;;4761033;30;20048;-82
2021/06/18 01:13:08;;;;;;;5.93;5.25;;;17.40;99.90;;;;;;4760728;30;20071;-83
2021/06/18 01:15:50;;;;;;;6.25;5.65;;;17.30;99.90;;;;;;4761677;30;20055;-83
2021/06/18 01:18:26;;;;;;;8.32;7.45;;;17.20;99.90;;;;;;4775120;30;20050;-83
2021/06/18 01:21:18;;;;;;;14.15;6.13;;;17.10;99.90;;;;;;4776636;30;20055;-83
2021/06/18 01:24:15;;;;;;;11.13;6.97;;;17.10;99.90;;;;;;4755845;30;20056;-83
2021/06/18 01:27:05;;;;;;;7.28;5.93;;;17.10;99.90;;;;;;4775344;30;20048;-83
2021/06/18 01:29:38;;;;;;;5.90;5.38;;;17.10;99.90;;;;;;4777914;30;20047;-82
2021/06/18 01:32:09;;;;;;;9.45;7.40;;;17.00;99.90;;;;;;4779434;30;20063;-83
2021/06/18 01:34:38;;;;;;;5.88;5.47;;;17.00;99.90;;;;;;4775964;30;20512;-82
2021/06/18 01:37:12;;;;;;;6.47;5.82;;;16.90;99.90;;;;;;4780103;30;20478;-83
2021/06/18 01:39:41;;;;;;;7.97;6.07;;;16.90;99.90;;;;;;4773509;30;20525;-83
2021/06/18 01:42:11;;;;;;;12.18;6.05;;;16.90;99.90;;;;;;4777426;30;20044;-83
2021/06/18 01:44:40;;;;;;;7.82;6.63;;;16.80;99.90;;;;;;4775918;30;20059;-82
2021/06/18 01:47:09;;;;;;;7.50;4.95;;;16.80;99.90;;;;;;4777829;29;20043;-83
2021/06/18 01:49:39;;;;;;;6.20;5.70;;;16.80;99.90;;;;;;4770350;30;20052;-82
2021/06/18 01:52:09;;;;;;;8.10;5.45;;;16.60;99.90;;;;;;4776240;30;20054;-82
2021/06/18 01:54:39;;;;;;;6.45;5.75;;;16.60;99.90;;;;;;4777693;29;20052;-83
2021/06/18 01:57:08;;;;;;;6.85;5.70;;;16.50;99.90;;;;;;4777914;30;20052;-83
2021/06/18 01:59:38;;;;;;;7.72;6.93;;;16.50;99.90;;;;;;4778048;30;20048;-83
2021/06/18 02:02:08;;;;;;;6.75;6.10;;;16.50;99.90;;;;;;4778200;30;20391;-84
2021/06/18 02:04:39;;;;;;;6.78;5.95;;;16.50;99.90;;;;;;4742594;30;20067;-84
2021/06/18 02:07:09;;;;;;;10.20;6.53;;;16.50;99.90;;;;;;4774921;30;20055;-83
2021/06/18 02:09:39;;;;;;;8.50;5.70;;;16.50;99.90;;;;;;4759019;30;20055;-83
2021/06/18 02:12:08;;;;;;;8.45;6.47;;;16.60;99.90;;;;;;4776527;30;20054;-83
2021/06/18 02:14:37;;;;;;;6.30;5.80;;;16.50;99.90;;;;;;4777397;30;20063;-83
2021/06/18 02:17:06;;;;;;;6.78;6.18;;;16.40;99.90;;;;;;4761511;30;20064;-82
2021/06/18 02:19:35;;;;;;;6.38;5.50;;;16.30;99.90;;;;;;4747981;30;20055;-83
2021/06/18 02:22:07;;;;;;;6.18;5.60;;;16.30;99.90;;;;;;4776012;30;20052;-83
2021/06/18 02:24:36;;;;;;;7.43;6.82;;;16.30;99.90;;;;;;4761098;30;20059;-84
2021/06/18 02:27:05;;;;;;;7.50;6.80;;;16.40;99.90;;;;;;4776938;30;20058;-83
2021/06/18 02:29:33;;;;;;;8.27;5.70;;;16.30;99.90;;;;;;4760029;30;20051;-82
2021/06/18 02:32:04;;;;;;;7.07;6.20;;;16.20;99.90;;;;;;4759643;30;20048;-82
2021/06/18 02:34:34;;;;;;;8.43;6.60;;;16.20;99.90;;;;;;4775439;29;20406;-82
2021/06/18 02:37:03;;;;;;;5.78;5.32;;;16.10;99.90;;;;;;4777421;30;20051;-84
2021/06/18 02:39:32;;;;;;;7.32;6.75;;;16.10;99.90;;;;;;4743650;30;20040;-86
2021/06/18 02:42:00;;;;;;;6.20;5.22;;;15.90;99.90;;;;;;4761660;30;20047;-86
2021/06/18 02:44:28;;;;;;;5.95;5.35;;;15.90;99.90;;;;;;4778355;30;20052;-86
2021/06/18 02:47:09;;;;;;;7.18;6.53;;;15.80;99.90;;;;;;4772362;30;20048;-86
2021/06/18 02:49:39;;;;;;;7.65;6.90;;;15.70;99.90;;;;;;4773438;30;20060;-86
2021/06/18 02:52:12;;;;;;;10.05;6.80;;;15.80;99.90;;;;;;4778878;30;20059;-86
2021/06/18 02:54:50;;;;;;;8.27;7.57;;;15.90;99.90;;;;;;4775964;30;20058;-86
2021/06/18 02:57:21;;;;;;;6.43;5.43;;;15.90;99.90;;;;;;4759503;30;20062;-86
2021/06/18 03:00:01;;;;;;;8.73;6.53;;;15.90;99.90;;;;;;4759998;30;21270;-85
2021/06/18 03:02:34;;;;;;;8.05;7.40;;;16.00;99.90;;;;;;4775415;30;20521;-86
2021/06/18 03:05:07;;;;;;;6.63;5.82;;;16.00;99.90;;;;;;4772684;30;20060;-85
2021/06/18 03:07:36;;;;;;;6.20;5.70;;;16.10;99.90;;;;;;4759392;30;20061;-86
2021/06/18 03:10:08;;;;;;;8.90;8.20;;;16.00;99.90;;;;;;4766733;30;20052;-87
2021/06/18 03:12:41;;;;;;;8.65;7.75;;;16.00;99.90;;;;;;4774777;30;20066;-86
2021/06/18 03:15:10;;;;;;;6.95;5.85;;;16.10;99.90;;;;;;4767175;30;20058;-86
2021/06/18 03:17:42;;;;;;;8.07;7.40;;;16.10;99.90;;;;;;4758506;30;20059;-86
2021/06/18 03:20:15;;;;;;;8.00;6.65;;;16.10;99.90;;;;;;4775439;30;20051;-86
2021/06/18 03:22:49;;;;;;;6.82;6.22;;;16.10;99.90;;;;;;4772480;30;20052;-86
2021/06/18 03:25:17;;;;;;;7.78;6.70;;;16.10;99.90;;;;;;4773806;30;20494;-86
2021/06/18 03:27:46;;;;;;;7.13;6.00;;;16.00;99.90;;;;;;4775691;30;20047;-86
2021/06/18 03:30:15;;;;;;;6.90;5.90;;;15.90;99.90;;;;;;4764621;30;20052;-86
2021/06/18 03:32:46;;;;;;;7.45;5.75;;;15.80;99.90;;;;;;4746560;30;20513;-86
2021/06/18 03:35:15;;;;;;;7.30;6.70;;;15.80;99.90;;;;;;4746797;30;20132;-86
2021/06/18 03:37:43;;;;;;;11.05;6.78;;;15.80;99.90;;;;;;4762027;30;20051;-86
2021/06/18 03:40:12;;;;;;;9.13;8.23;;;15.80;99.90;;;;;;4776176;30;20441;-86
2021/06/18 03:42:43;;;;;;;9.73;5.85;;;15.80;99.90;;;;;;4744613;30;20055;-86
2021/06/18 03:45:11;;;;;;;6.47;5.85;;;15.90;99.90;;;;;;4759418;30;20066;-86
2021/06/18 03:47:41;;;;;;;10.73;6.93;;;15.90;99.90;;;;;;4773038;30;20418;-87
2021/06/18 03:50:11;;;;;;;10.70;6.82;;;15.90;99.90;;;;;;4775994;30;20043;-86
2021/06/18 03:52:39;;;;;;;13.68;8.32;;;15.80;99.90;;;;;;4771154;30;20067;-87
2021/06/18 03:55:09;;;;;;;12.18;7.88;;;15.90;99.90;;;;;;4773764;29;20406;-86
2021/06/18 03:57:41;;;;;;;7.45;6.75;;;15.90;99.90;;;;;;4764264;30;20608;-86
2021/06/18 04:00:09;;;;;;;5.72;5.30;;;16.00;99.90;;;;;;4761427;30;20055;-85
2021/06/18 04:02:40;;;;;;;6.65;6.15;;;16.10;99.90;;;;;;4774107;30;20051;-86
2021/06/18 04:05:14;;;;;;;9.05;6.72;;;16.20;99.90;;;;;;4760227;30;20059;-86
2021/06/18 04:07:47;;;;;;;12.68;10.07;;;16.20;99.90;;;;;;4756722;30;20059;-86
2021/06/18 04:10:17;;;;;;;6.57;5.97;;;16.10;99.90;;;;;;4759125;30;20521;-86
2021/06/18 04:12:49;;;;;;;;;;;16.10;99.90;;;;;;4760684;30;20055;-86
2021/06/18 04:15:20;;;;;;;6.50;5.90;;;16.10;99.90;;;;;;4769723;30;19933;-86
2021/06/18 04:17:48;;;;;;;6.77;6.10;;;16.10;99.90;;;;;;4744191;29;20055;-85
2021/06/18 04:20:21;;;;;;;7.00;6.30;;;16.20;99.90;;;;;;4756906;30;20672;-86
2021/06/18 04:22:51;;;;;;;8.80;6.70;;;16.30;99.90;;;;;;4758972;30;20696;-86
2021/06/18 04:25:20;;;;;;;7.93;7.22;;;16.30;99.90;;;;;;4760510;30;20051;-86
2021/06/18 04:27:49;;;;;;;6.95;6.43;;;16.40;99.90;;;;;;4758375;30;20056;-86
2021/06/18 04:30:18;;;;;;;7.05;6.35;;;16.50;99.90;;;;;;4753241;30;20530;-86
2021/06/18 04:32:46;;;;;;;7.63;6.95;;;16.50;99.90;;;;;;4742151;30;20059;-86
2021/06/18 04:35:14;;;;;;;7.60;6.80;;;16.60;99.90;;;;;;4762178;30;20060;-86
2021/06/18 04:37:42;;;;;;;10.52;6.25;;;16.80;99.90;;;;;;4748605;30;20506;-86
2021/06/18 04:40:11;;;;;;;11.50;8.85;;;17.00;99.90;;;;;;4775190;30;20067;-87
2021/06/18 04:42:40;;;;;;;8.15;7.40;;;17.10;99.90;;;;;;4773549;30;20052;-87
2021/06/18 04:45:08;;;;;;;7.93;7.25;;;17.30;99.90;;;;;;4774354;30;20081;-87
2021/06/18 04:47:37;;;;;;;12.55;8.35;;;17.50;99.90;;;;;;4741402;30;20063;-87
2021/06/18 04:50:08;;;;;;;10.13;8.73;;;17.60;99.90;;;;;;4739190;30;20045;-85
2021/06/18 04:52:44;;;;;;;8.20;7.40;;;17.60;99.90;;;;;;4740648;30;20063;-85
2021/06/18 04:55:17;;;;;;;9.50;6.88;;;17.70;99.90;;;;;;4750421;30;20609;-84
2021/06/18 04:57:47;;;;;;;8.23;7.53;;;17.80;99.90;;;;;;4760264;30;20063;-84
2021/06/18 05:00:17;;;;;;;11.77;7.35;;;18.00;99.90;;;;;;4756788;30;20426;-76
2021/06/18 05:02:45;;;;;;;6.55;5.95;;;18.20;99.90;;;;;;4766001;30;20497;-77
2021/06/18 05:05:13;;;;;;;7.63;6.57;;;18.40;99.90;;;;;;4774526;30;20056;-77
2021/06/18 05:07:41;;;;;;;11.40;7.00;;;18.50;99.90;;;;;;4758438;30;20059;-77
2021/06/18 05:10:24;;;;;;;9.45;6.97;;;18.70;99.90;;;;;;5078215;27;20128;-78
2021/06/18 05:12:52;;;;;;;12.63;8.00;;;19.00;99.90;;;;;;5047314;28;20053;-76
2021/06/18 05:15:20;;;;;;;6.55;6.05;;;19.20;99.90;;;;;;5061777;28;20041;-76
2021/06/18 05:17:48;;;;;;;8.73;7.82;;;19.30;99.90;;;;;;5064890;28;20048;-77
2021/06/18 05:20:16;;;;;;;7.65;6.03;;;19.40;99.90;;;;;;5067147;28;20052;-77
2021/06/18 05:22:45;;;;;;;8.63;7.82;;;19.60;99.90;;;;;;5066907;28;20049;-77
2021/06/18 05:25:13;;;;;;;10.15;7.55;;;19.80;99.90;;;;;;5067619;28;20052;-76
2021/06/18 05:27:42;;;;;;;10.35;6.65;;;20.10;99.90;;;;;;5067154;28;20044;-76
2021/06/18 05:30:12;;;;;;;7.15;6.55;;;20.30;99.90;;;;;;5067150;28;20049;-82
2021/06/18 05:32:48;;;;;;;8.70;7.57;;;20.50;99.90;;;;;;5066277;28;20052;-80
2021/06/18 05:35:16;;;;;;;11.10;9.60;;;20.60;99.90;;;;;;5065480;28;20132;-79
2021/06/18 05:37:44;;;;;;;11.27;9.10;;;20.80;99.90;;;;;;5067060;28;20044;-79
2021/06/18 05:40:12;;;;;;;10.57;9.55;;;20.90;99.90;;;;;;5067190;28;20045;-79
2021/06/18 05:42:41;;;;;;;7.70;6.88;;;21.00;99.90;;;;;;5066886;28;20037;-79
2021/06/18 05:45:10;;;;;;;9.38;8.48;;;21.10;99.90;;;;;;5066849;28;20433;-79
2021/06/18 05:47:38;;;;;;;9.48;7.53;;;21.10;99.90;;;;;;5064174;28;20558;-79
2021/06/18 05:50:07;;;;;;;12.02;7.60;;;21.10;99.90;;;;;;5066064;28;20048;-79
2021/06/18 05:52:35;;;;;;;9.73;8.30;;;21.20;99.90;;;;;;5066533;28;20067;-79
2021/06/18 05:55:04;;;;;;;8.45;7.75;;;21.10;99.90;;;;;;5066220;28;20484;-79
2021/06/18 05:57:32;;;;;;;9.82;7.28;;;21.10;99.90;;;;;;5064805;28;20047;-78
2021/06/18 06:00:00;;;;;;;8.10;7.32;;;21.10;99.90;;;;;;5066495;28;20052;-81
2021/06/18 06:02:29;;;;;;;8.43;7.47;;;21.20;99.90;;;;;;5065985;28;20437;-81
2021/06/18 06:04:57;;;;;;;20.90;7.95;;;21.30;99.90;;;;;;5062510;28;20048;-80
2021/06/18 06:07:25;;;;;;;8.48;7.65;;;21.40;99.90;;;;;;5065693;28;20037;-80
2021/06/18 06:09:54;;;;;;;7.55;6.85;;;21.50;99.90;;;;;;5064061;28;20056;-80
2021/06/18 06:12:22;;;;;;;9.15;7.95;;;21.50;99.90;;;;;;5065399;28;20049;-80
2021/06/18 06:14:50;;;;;;;11.77;9.25;;;21.60;99.90;;;;;;5066024;28;20532;-80
2021/06/18 06:17:18;;;;;;;13.57;6.13;;;21.70;99.90;;;;;;5063946;28;20053;-81
2021/06/18 06:19:46;;;;;;;9.57;6.47;;;21.80;99.90;;;;;;5063692;28;20403;-81
2021/06/18 06:22:14;;;;;;;7.88;7.13;;;21.90;99.90;;;;;;5051752;28;20033;-81
2021/06/18 06:24:41;;;;;;;6.30;5.78;;;21.90;99.90;;;;;;5053137;28;20049;-81
2021/06/18 06:27:09;;;;;;;6.85;5.70;;;22.00;99.90;;;;;;5052476;28;20071;-81
2021/06/18 06:29:37;;;;;;;8.98;6.63;;;22.20;99.90;;;;;;5051213;28;20052;-81
2021/06/18 06:32:05;;;;;;;6.68;5.78;;;22.20;99.20;;;;;;5052433;28;20052;-81
2021/06/18 06:34:33;;;;;;;7.47;5.47;;;22.30;97.90;;;;;;5052257;28;20072;-81
2021/06/18 06:37:01;;;;;;;7.82;4.72;;;22.20;96.30;;;;;;5050550;28;20049;-82
2021/06/18 06:39:29;;;;;;;9.65;5.95;;;22.20;98.40;;;;;;5052482;28;20037;-81
2021/06/18 06:41:57;;;;;;;9.05;5.78;;;22.30;97.70;;;;;;5049473;28;20049;-81
2021/06/18 06:44:25;;;;;;;6.47;5.88;;;22.40;97.50;;;;;;5052977;28;20060;-81
2021/06/18 06:46:53;;;;;;;8.57;5.25;;;22.40;96.80;;;;;;5052137;28;20045;-82
2021/06/18 06:49:21;;;;;;;12.98;6.10;;;22.30;96.50;;;;;;5052653;28;20049;-81
2021/06/18 06:51:49;;;;;;;8.95;6.13;;;22.40;96.90;;;;;;5051704;28;20048;-81
2021/06/18 06:54:17;;;;;;;6.88;6.22;;;22.50;97.10;;;;;;5049694;28;20033;-81
2021/06/18 06:56:45;;;;;;;7.85;5.43;;;22.70;98.40;;;;;;5051464;28;20053;-81
2021/06/18 06:59:14;;;;;;;5.05;4.65;;;22.80;97.10;;;;;;5052384;28;20060;-81
2021/06/18 07:01:42;;;;;;;12.35;7.18;;;23.00;97.20;;;;;;5050503;28;20044;-81
2021/06/18 07:04:10;;;;;;;9.50;5.72;;;23.00;98.30;;;;;;5052317;28;20545;-81
2021/06/18 07:06:39;;;;;;;12.27;5.75;;;23.10;98.40;;;;;;5048740;28;20072;-81
2021/06/18 07:09:07;;;;;;;9.07;6.22;;;23.20;96.80;;;;;;5052296;28;20057;-80
2021/06/18 07:11:35;;;;;;;7.82;5.68;;;23.60;97.30;;;;;;5051363;28;20477;-84
2021/06/18 07:14:03;;;;;;;7.05;6.40;;;24.00;95.00;;;;;;5051913;28;20482;-87
2021/06/18 07:16:30;;;;;;;14.40;5.85;;;24.70;93.80;;;;;;5051797;28;20073;-86
2021/06/18 07:18:58;;;;;;;5.53;4.57;;;25.50;93.70;;;;;;5049532;28;20033;-86
2021/06/18 07:21:26;;;;;;;5.07;4.60;;;26.20;91.30;;;;;;5051803;28;20060;-84
2021/06/18 07:23:54;;;;;;;6.38;5.82;;;26.20;91.70;;;;;;5052200;28;20056;-85
2021/06/18 07:26:22;;;;;;;7.97;6.38;;;26.10;92.30;;;;;;5051763;28;20036;-79
2021/06/18 07:28:51;;;;;;;8.50;6.18;;;26.60;91.10;;;;;;5050723;28;20398;-83
2021/06/18 07:31:19;;;;;;;6.55;5.10;;;27.40;87.90;;;;;;5047386;28;20052;-84
2021/06/18 07:33:47;;;;;;;10.80;6.10;;;27.60;88.20;;;;;;5051018;28;20045;-83
2021/06/18 07:36:15;;;;;;;6.88;6.28;;;28.20;90.50;;;;;;5051138;28;20371;-80
2021/06/18 07:38:43;;;;;;;17.35;6.93;;;29.00;88.40;;;;;;5051643;28;20045;-81
2021/06/18 07:41:11;;;;;;;6.70;6.07;;;30.10;82.70;;;;;;5046455;28;20053;-81
2021/06/18 07:43:39;;;;;;;7.70;6.93;;;31.40;81.00;;;;;;5047918;28;20051;-83
2021/06/18 07:46:07;;;;;;;7.18;6.53;;;31.20;80.60;;;;;;5051640;28;20071;-84
2021/06/18 07:48:42;;;;;;;7.38;6.68;;;30.20;80.10;;;;;;5046980;28;20060;-84
2021/06/18 07:51:42;;;;;;;14.57;6.07;;;28.80;86.20;;;;;;5050150;28;20049;-82
2021/06/18 07:54:19;;;;;;;8.55;6.95;;;27.80;86.40;;;;;;5047248;28;20055;-83
2021/06/18 07:57:04;;;;;;;6.50;5.35;;;27.50;87.00;;;;;;5046662;28;20052;-84
2021/06/18 07:59:34;;;;;;;7.70;5.72;;;27.50;87.90;;;;;;5050443;28;20479;-84
2021/06/18 08:02:05;;;;;;;6.63;5.68;;;27.40;88.80;;;;;;5051417;28;20490;-83
2021/06/18 08:04:54;;;;;;;9.38;6.57;;;26.70;89.60;;;;;;5050971;28;20044;-83
2021/06/18 08:07:22;;;;;;;13.90;6.85;;;26.20;92.20;;;;;;5048668;28;20044;-83
2021/06/18 08:09:54;;;;;;;7.90;7.18;;;26.10;91.90;;;;;;5051017;28;20486;-84
2021/06/18 08:12:22;;;;;;;7.13;6.53;;;26.00;92.60;;;;;;5051527;28;20064;-82
2021/06/18 08:15:28;;;;;;;6.28;5.68;;;25.90;92.60;;;;;;5050331;28;20041;-85
2021/06/18 08:18:11;;;;;;;6.03;5.43;;;26.10;90.70;;;;;;5041370;28;20052;-81
2021/06/18 08:20:39;;;;;;;6.80;6.13;;;26.00;91.80;;;;;;5032215;28;20045;-81
2021/06/18 08:23:07;;;;;;;7.50;6.90;;;25.90;93.90;;;;;;5050133;28;20051;-79
2021/06/18 08:25:35;;;;;;;8.65;6.68;;;25.80;94.70;;;;;;5032624;28;20052;-80
2021/06/18 08:28:03;;;;;;;7.35;6.75;;;25.60;93.10;;;;;;5051111;28;20475;-79
2021/06/18 08:30:31;;;;;;;7.57;6.95;;;25.40;92.60;;;;;;5049724;28;20041;-80
2021/06/18 08:33:00;;;;;;;8.95;6.68;;;25.30;93.80;;;;;;5048206;28;20040;-85
2021/06/18 08:35:31;;;;;;;6.53;5.93;;;25.40;94.50;;;;;;5031395;28;20032;-85
2021/06/18 08:38:02;;;;;;;9.52;6.65;;;25.30;92.40;;;;;;5048062;28;20037;-84
2021/06/18 08:40:30;;;;;;;;;;;25.40;92.70;;;;;;5032838;28;20041;-86
2021/06/18 08:42:59;;;;;;;12.20;7.22;;;25.40;93.20;;;;;;5037779;28;19925;-85
2021/06/18 08:45:31;;;;;;;8.73;5.88;;;25.50;91.90;;;;;;5033197;28;20390;-86
2021/06/18 08:47:59;;;;;;;7.95;5.75;;;25.60;92.70;;;;;;5033862;28;20063;-85
2021/06/18 08:50:27;;;;;;;7.32;6.78;;;25.80;91.40;;;;;;5027259;28;20041;-85
2021/06/18 08:53:00;;;;;;;7.07;5.20;;;25.80;93.00;;;;;;5048707;28;20505;-85
2021/06/18 08:55:30;;;;;;;14.20;6.20;;;25.70;91.80;;;;;;5049674;28;20044;-87
2021/06/18 08:58:03;;;;;;;6.85;5.75;;;25.80;93.50;;;;;;5046207;28;20042;-85
2021/06/18 09:00:33;;;;;;;9.65;7.20;;;25.80;92.70;;;;;;5037052;28;20056;-84
2021/06/18 09:03:38;;;;;;;16.73;7.70;;;25.90;94.30;;;;;;5008111;28;20053;-85
2021/06/18 09:06:18;;;;;;;6.68;6.05;;;26.10;93.20;;;;;;5029349;28;20052;-85
2021/06/18 09:09:10;;;;;;;7.35;6.75;;;26.20;94.10;;;;;;5038032;28;20049;-86
2021/06/18 09:11:40;;;;;;;15.27;7.45;;;26.30;94.00;;;;;;5038828;28;20041;-86
2021/06/18 09:14:25;;;;;;;8.05;7.25;;;26.30;93.80;;;;;;5040412;28;20445;-85
2021/06/18 09:17:16;;;;;;;7.15;5.90;;;26.30;93.00;;;;;;5039346;28;20498;-86
2021/06/18 09:19:51;;;;;;;6.13;5.40;;;26.40;93.60;;;;;;5045944;28;20033;-85
2021/06/18 09:22:23;;;;;;;8.98;6.45;;;26.60;92.70;;;;;;5028726;28;20048;-88
2021/06/18 09:25:10;;;;;;;9.55;6.63;;;26.60;93.00;;;;;;5048562;28;20045;-85
2021/06/18 09:27:44;;;;;;;7.43;6.70;;;26.60;93.00;;;;;;5023531;28;20040;-85
2021/06/18 09:30:31;;;;;;;6.68;5.65;;;26.60;93.90;;;;;;5049538;28;20083;-85
2021/06/18 09:33:03;;;;;;;9.32;6.05;;;26.50;90.40;;;;;;5047563;28;20406;-85
2021/06/18 09:35:33;;;;;;;6.57;6.05;;;26.50;90.40;;;;;;5038127;28;20048;-87
2021/06/18 09:38:04;;;;;;;7.80;6.03;;;26.60;92.40;;;;;;5040347;28;20379;-84
2021/06/18 09:40:33;;;;;;;6.20;5.70;;;26.80;91.50;;;;;;5049137;28;20060;-85
2021/06/18 09:43:09;;;;;;;8.77;6.18;;;26.80;91.30;;;;;;5046006;28;20052;-84
2021/06/18 09:45:39;;;;;;;6.78;6.18;;;26.70;91.30;;;;;;5049049;28;20064;-84
2021/06/18 09:48:20;;;;;;;7.63;5.45;;;26.70;91.60;;;;;;5049851;28;20383;-86
2021/06/18 09:51:06;;;;;;;6.90;6.18;;;26.60;91.00;;;;;;5037980;28;20041;-86
2021/06/18 09:53:52;;;;;;;6.05;5.43;;;26.70;92.20;;;;;;5028616;28;20040;-87
2021/06/18 09:56:44;;;;;;;7.22;6.03;;;26.90;93.00;;;;;;5043971;28;20045;-86
2021/06/18 09:59:22;;;;;;;9.00;6.40;;;27.00;92.80;;;;;;5042698;28;20048;-84
2021/06/18 10:01:54;;;;;;;6.63;5.45;;;27.10;91.60;;;;;;5056436;28;20037;-83
2021/06/18 10:04:25;;;;;;;7.10;6.13;;;27.20;92.90;;;;;;5058323;28;20408;-85
2021/06/18 10:06:53;;;;;;;17.02;7.60;;;27.40;91.60;;;;;;5058189;28;20279;-84
2021/06/18 10:09:22;;;;;;;9.10;6.05;;;27.50;90.20;;;;;;5059436;28;20049;-84
2021/06/18 10:11:53;;;;;;;5.80;5.30;;;27.50;88.70;;;;;;5057795;28;20056;-86
2021/06/18 10:14:21;;;;;;;9.82;4.78;;;27.60;89.70;;;;;;5038358;28;20037;-84
2021/06/18 10:16:49;;;;;;;5.70;4.70;;;27.60;89.20;;;;;;5041773;28;20049;-84
2021/06/18 10:19:17;;;;;;;7.03;4.95;;;27.70;90.10;;;;;;5059617;28;20043;-83
2021/06/18 10:22:07;;;;;;;6.03;5.28;;;27.80;89.80;;;;;;5045732;28;20037;-84
2021/06/18 10:24:42;;;;;;;6.13;5.63;;;27.70;90.10;;;;;;5040473;28;20046;-84
2021/06/18 10:27:13;;;;;;;5.65;5.10;;;27.70;87.30;;;;;;5046977;28;20052;-84
2021/06/18 10:29:42;;;;;;;8.43;5.60;;;27.70;86.00;;;;;;5051007;28;20490;-89
2021/06/18 10:32:28;;;;;;;8.45;6.05;;;27.70;86.30;;;;;;5050717;28;20049;-87
2021/06/18 10:34:57;;;;;;;5.80;5.28;;;27.80;87.50;;;;;;5043363;28;20515;-84
2021/06/18 10:37:27;;;;;;;10.82;5.32;;;27.80;87.80;;;;;;5036062;28;20813;-87
2021/06/18 10:39:58;;;;;;;6.70;4.75;;;27.70;84.10;;;;;;5047586;28;20041;-85
2021/06/18 10:42:26;;;;;;;5.75;5.07;;;27.60;86.30;;;;;;5055514;28;20048;-84
2021/06/18 10:44:54;;;;;;;7.05;5.05;;;27.60;83.70;;;;;;5050725;28;20093;-85
2021/06/18 10:47:26;;;;;;;5.55;5.03;;;27.50;85.80;;;;;;5049178;28;20509;-84
2021/06/18 10:49:54;;;;;;;5.75;4.82;;;27.70;83.90;;;;;;5049472;28;20052;-83
2021/06/18 10:52:26;;;;;;;6.13;5.28;;;27.80;87.90;;;;;;5049619;28;20056;-87
2021/06/18 10:54:58;;;;;;;4.75;4.45;;;27.70;81.40;;;;;;5049209;28;20048;-85
2021/06/18 10:57:27;;;;;;;4.85;4.40;;;27.70;82.80;;;;;;5046064;28;20056;-87
2021/06/18 10:59:57;;;;;;;4.75;4.45;;;27.70;83.70;;;;;;5048516;28;20045;-86
2021/06/18 11:02:26;;;;;;;5.40;4.90;;;27.80;83.80;;;;;;5049919;28;20043;-85
2021/06/18 11:05:16;;;;;;;18.92;5.25;;;27.90;86.50;;;;;;5050918;28;20048;-83
2021/06/18 11:07:46;;;;;;;4.38;4.05;;;28.00;79.00;;;;;;5048023;28;20041;-84
2021/06/18 11:10:27;;;;;;;4.82;4.15;;;28.00;78.70;;;;;;5049931;28;20044;-83
2021/06/18 11:13:04;;;;;;;4.38;4.03;;;28.00;75.50;;;;;;5049305;28;20044;-86
2021/06/18 11:15:31;;;;;;;21.70;4.72;;;28.00;79.10;;;;;;5046584;28;20040;-85
2021/06/18 11:18:03;;;;;;;6.90;4.00;;;28.00;76.40;;;;;;5048358;28;20425;-86
2021/06/18 11:20:33;;;;;;;5.93;4.25;;;27.90;78.20;;;;;;5045135;28;20067;-85
2021/06/18 11:23:09;;;;;;;5.15;3.83;;;28.00;76.80;;;;;;5015918;28;20060;-86
2021/06/18 11:25:40;;;;;;;11.60;4.57;;;28.00;78.30;;;;;;5031093;28;20046;-84
2021/06/18 11:28:27;;;;;;;3.72;3.42;;;28.20;78.40;;;;;;5050490;28;20080;-84
2021/06/18 11:31:02;;;;;;;3.80;3.50;;;28.30;75.20;;;;;;5025500;28;20061;-88
2021/06/18 11:33:40;;;;;;;7.05;3.28;;;28.40;77.50;;;;;;5046347;28;20041;-83
2021/06/18 11:36:18;;;;;;;5.97;4.38;;;28.40;73.00;;;;;;5049224;28;20662;-84
2021/06/18 11:38:49;;;;;;;3.33;3.00;;;28.40;73.80;;;;;;5051361;28;20048;-87
2021/06/18 11:41:25;;;;;;;3.75;3.38;;;28.40;74.50;;;;;;5050324;28;20056;-86
2021/06/18 11:43:56;;;;;;;5.78;4.00;;;28.40;69.40;;;;;;5030761;28;20052;-86
2021/06/18 11:46:28;;;;;;;3.60;3.30;;;28.30;66.20;;;;;;5050652;28;20391;-83
2021/06/18 11:49:18;;;;;;;5.97;3.45;;;28.20;69.80;;;;;;5048482;28;20063;-81
2021/06/18 11:51:51;;;;;;;4.03;3.67;;;28.30;70.90;;;;;;5029787;28;20534;-84
2021/06/18 11:54:33;;;;;;;3.65;3.35;;;28.30;68.10;;;;;;5037189;28;20041;-84
2021/06/18 11:57:19;;;;;;;7.25;3.55;;;28.30;71.40;;;;;;5048577;28;20060;-83
2021/06/18 11:59:59;;;;;;;7.07;4.05;;;28.40;68.50;;;;;;5049906;28;20071;-83
2021/06/18 12:02:33;;;;;;;3.45;3.15;;;28.40;69.90;;;;;;5050436;28;20041;-84
2021/06/18 12:05:07;;;;;;;2.83;2.55;;;28.40;63.70;;;;;;5051317;28;20049;-78
2021/06/18 12:07:36;;;;;;;9.75;5.55;;;28.30;69.30;;;;;;5046204;28;20486;-79
2021/06/18 12:10:06;;;;;;;3.47;2.97;;;28.30;67.40;;;;;;5047459;28;20037;-80
2021/06/18 12:12:47;;;;;;;3.95;3.42;;;28.40;68.00;;;;;;5048181;28;20048;-80
2021/06/18 12:15:19;;;;;;;3.78;3.20;;;28.40;62.50;;;;;;5047942;28;20048;-79
2021/06/18 12:17:54;;;;;;;4.90;3.00;;;28.50;68.20;;;;;;5049911;28;20044;-80
2021/06/18 12:20:31;;;;;;;3.22;2.83;;;28.50;67.60;;;;;;5048712;28;20075;-79
2021/06/18 12:23:07;;;;;;;2.85;2.65;;;28.50;61.70;;;;;;5047703;28;20041;-81
2021/06/18 12:25:35;;;;;;;4.05;3.28;;;28.50;62.80;;;;;;5047508;28;20048;-80
2021/06/18 12:28:04;;;;;;;2.65;2.45;;;28.60;64.90;;;;;;5050433;28;20051;-80
2021/06/18 12:30:34;;;;;;;4.05;3.03;;;28.60;60.40;;;;;;5049668;28;20041;-79
2021/06/18 12:33:03;;;;;;;;;;;28.70;59.30;;;;;;5051076;28;20489;-79
2021/06/18 12:35:40;;;;;;;4.10;2.65;;;28.60;56.70;;;;;;5049908;28;19928;-79
2021/06/18 12:38:12;;;;;;;4.53;2.80;;;28.60;58.30;;;;;;5049950;28;20041;-88
2021/06/18 12:40:48;;;;;;;4.97;3.00;;;28.60;61.80;;;;;;5048775;28;20048;-81
2021/06/18 12:43:16;;;;;;;2.38;2.17;;;28.70;60.30;;;;;;5050083;28;20041;-82
2021/06/18 12:45:53;;;;;;;2.97;2.67;;;28.80;59.60;;;;;;5049425;28;20045;-83
2021/06/18 12:48:27;;;;;;;5.22;3.22;;;28.80;61.00;;;;;;5048893;28;20510;-82
2021/06/18 12:50:59;;;;;;;6.07;3.58;;;28.80;61.90;;;;;;5049053;28;20370;-82
2021/06/18 12:53:30;;;;;;;3.90;2.75;;;28.90;62.60;;;;;;5048567;28;20045;-81
2021/06/18 12:56:11;;;;;;;4.93;2.50;;;28.90;63.00;;;;;;5047013;28;20052;-78
2021/06/18 12:58:40;;;;;;;5.40;3.35;;;28.90;57.50;;;;;;5048509;28;20045;-80
2021/06/18 13:01:09;;;;;;;4.03;2.45;;;28.90;60.80;;;;;;5048226;28;20063;-81
2021/06/18 13:04:00;;;;;;;4.10;2.08;;;28.90;57.70;;;;;;5047931;28;20037;-79
2021/06/18 13:06:43;;;;;;;5.63;2.08;;;28.90;55.80;;;;;;5047440;28;20051;-80
2021/06/18 13:09:12;;;;;;;2.50;2.30;;;29.00;54.40;;;;;;5047991;28;20057;-79